sensor_id;sensor_type;location;lat;lon;timestamp;P1;durP1;ratioP1;P2;durP2;ratioP2
21639;SDS011;10981;45.462;10.974;2023-04-15T00:00:08;4.00;;;3.05;;
21639;SDS011;10981;45.462;10.974;2023-04-15T00:02:39;5.07;;;3.20;;
21639;SDS011;10981;45.462;10.974;2023-04-15T00:05:08;5.43;;;2.83;;
21639;SDS011;10981;45.462;10.974;2023-04-15T00:07:37;9.48;;;3.85;;
21639;SDS011;10981;45.462;10.974;2023-04-15T00:10:06;6.65;;;3.67;;
21639;SDS011;10981;45.462;10.974;2023-04-15T00:12:35;6.07;;;3.70;;
21639;SDS011;10981;45.462;10.974;2023-04-15T00:15:03;6.63;;;3.20;;
21639;SDS011;10981;45.462;10.974;2023-04-15T00:17:32;4.78;;;3.22;;
21639;SDS011;10981;45.462;10.974;2023-04-15T00:20:01;3.65;;;2.90;;
21639;SDS011;10981;45.462;10.974;2023-04-15T00:22:32;4.88;;;2.47;;
21639;SDS011;10981;45.462;10.974;2023-04-15T00:25:00;3.33;;;2.65;;
21639;SDS011;10981;45.462;10.974;2023-04-15T00:27:29;3.75;;;2.45;;
21639;SDS011;10981;45.462;10.974;2023-04-15T00:29:57;5.47;;;3.05;;
21639;SDS011;10981;45.462;10.974;2023-04-15T00:32:26;4.90;;;3.05;;
21639;SDS011;10981;45.462;10.974;2023-04-15T00:34:55;5.10;;;3.58;;
21639;SDS011;10981;45.462;10.974;2023-04-15T00:37:23;6.07;;;3.28;;
21639;SDS011;10981;45.462;10.974;2023-04-15T00:39:52;6.05;;;3.10;;
21639;SDS011;10981;45.462;10.974;2023-04-15T00:42:20;5.32;;;3.33;;
21639;SDS011;10981;45.462;10.974;2023-04-15T00:44:49;3.80;;;3.28;;
21639;SDS011;10981;45.462;10.974;2023-04-15T00:47:17;9.63;;;3.35;;
21639;SDS011;10981;45.462;10.974;2023-04-15T00:49:46;5.28;;;3.17;;
21639;SDS011;10981;45.462;10.974;2023-04-15T00:52:14;4.47;;;2.88;;
21639;SDS011;10981;45.462;10.974;2023-04-15T00:54:43;3.92;;;2.83;;
21639;SDS011;10981;45.462;10.974;2023-04-15T00:57:12;3.22;;;2.85;;
21639;SDS011;10981;45.462;10.974;2023-04-15T00:59:40;7.10;;;3.30;;
21639;SDS011;10981;45.462;10.974;2023-04-15T01:02:08;3.90;;;2.50;;
21639;SDS011;10981;45.462;10.974;2023-04-15T01:04:37;4.50;;;2.22;;
21639;SDS011;10981;45.462;10.974;2023-04-15T01:07:05;3.25;;;2.25;;
21639;SDS011;10981;45.462;10.974;2023-04-15T01:09:34;4.47;;;2.40;;
21639;SDS011;10981;45.462;10.974;2023-04-15T01:12:02;4.30;;;2.63;;
21639;SDS011;10981;45.462;10.974;2023-04-15T01:14:32;5.32;;;2.80;;
21639;SDS011;10981;45.462;10.974;2023-04-15T01:17:00;3.05;;;2.55;;
21639;SDS011;10981;45.462;10.974;2023-04-15T01:19:29;3.40;;;2.65;;
21639;SDS011;10981;45.462;10.974;2023-04-15T01:21:57;5.25;;;2.58;;
21639;SDS011;10981;45.462;10.974;2023-04-15T01:24:26;6.47;;;2.75;;
21639;SDS011;10981;45.462;10.974;2023-04-15T01:26:56;3.97;;;2.40;;
21639;SDS011;10981;45.462;10.974;2023-04-15T01:29:25;7.78;;;4.03;;
21639;SDS011;10981;45.462;10.974;2023-04-15T01:31:54;4.35;;;2.53;;
21639;SDS011;10981;45.462;10.974;2023-04-15T01:34:44;4.07;;;2.92;;
21639;SDS011;10981;45.462;10.974;2023-04-15T01:37:32;6.85;;;3.00;;
21639;SDS011;10981;45.462;10.974;2023-04-15T01:40:00;4.10;;;3.00;;
21639;SDS011;10981;45.462;10.974;2023-04-15T01:42:29;7.72;;;4.30;;
21639;SDS011;10981;45.462;10.974;2023-04-15T01:44:59;5.30;;;3.60;;
21639;SDS011;10981;45.462;10.974;2023-04-15T01:47:28;5.28;;;2.97;;
21639;SDS011;10981;45.462;10.974;2023-04-15T01:49:58;4.10;;;2.72;;
21639;SDS011;10981;45.462;10.974;2023-04-15T01:52:29;5.13;;;3.47;;
21639;SDS011;10981;45.462;10.974;2023-04-15T01:54:59;4.93;;;2.90;;
21639;SDS011;10981;45.462;10.974;2023-04-15T01:57:29;3.85;;;2.70;;
21639;SDS011;10981;45.462;10.974;2023-04-15T01:59:58;4.55;;;2.97;;
21639;SDS011;10981;45.462;10.974;2023-04-15T02:02:28;4.25;;;2.63;;
21639;SDS011;10981;45.462;10.974;2023-04-15T02:04:58;3.83;;;2.80;;
21639;SDS011;10981;45.462;10.974;2023-04-15T02:07:28;4.18;;;2.97;;
21639;SDS011;10981;45.462;10.974;2023-04-15T02:10:00;4.30;;;3.13;;
21639;SDS011;10981;45.462;10.974;2023-04-15T02:12:30;6.53;;;3.40;;
21639;SDS011;10981;45.462;10.974;2023-04-15T02:14:59;5.45;;;3.08;;
21639;SDS011;10981;45.462;10.974;2023-04-15T02:17:29;5.55;;;3.20;;
21639;SDS011;10981;45.462;10.974;2023-04-15T02:20:02;4.03;;;3.00;;
21639;SDS011;10981;45.462;10.974;2023-04-15T02:22:36;3.88;;;2.80;;
21639;SDS011;10981;45.462;10.974;2023-04-15T02:25:05;5.07;;;3.38;;
21639;SDS011;10981;45.462;10.974;2023-04-15T02:27:36;4.85;;;3.40;;
21639;SDS011;10981;45.462;10.974;2023-04-15T02:30:05;3.83;;;2.92;;
21639;SDS011;10981;45.462;10.974;2023-04-15T02:32:35;4.80;;;3.22;;
21639;SDS011;10981;45.462;10.974;2023-04-15T02:35:06;3.58;;;2.88;;
21639;SDS011;10981;45.462;10.974;2023-04-15T02:37:36;4.35;;;3.22;;
21639;SDS011;10981;45.462;10.974;2023-04-15T02:40:11;3.92;;;2.95;;
21639;SDS011;10981;45.462;10.974;2023-04-15T02:42:41;4.55;;;3.03;;
21639;SDS011;10981;45.462;10.974;2023-04-15T02:45:14;4.32;;;2.88;;
21639;SDS011;10981;45.462;10.974;2023-04-15T02:47:45;6.90;;;3.50;;
21639;SDS011;10981;45.462;10.974;2023-04-15T02:50:15;3.92;;;2.60;;
21639;SDS011;10981;45.462;10.974;2023-04-15T02:52:44;5.65;;;3.13;;
21639;SDS011;10981;45.462;10.974;2023-04-15T02:55:14;5.45;;;3.00;;
21639;SDS011;10981;45.462;10.974;2023-04-15T02:57:45;4.38;;;3.38;;
21639;SDS011;10981;45.462;10.974;2023-04-15T03:00:15;5.90;;;3.22;;
21639;SDS011;10981;45.462;10.974;2023-04-15T03:02:46;5.53;;;3.28;;
21639;SDS011;10981;45.462;10.974;2023-04-15T03:05:19;4.35;;;3.35;;
21639;SDS011;10981;45.462;10.974;2023-04-15T03:07:52;5.18;;;3.75;;
21639;SDS011;10981;45.462;10.974;2023-04-15T03:10:21;5.45;;;3.65;;
21639;SDS011;10981;45.462;10.974;2023-04-15T03:12:51;5.43;;;3.90;;
21639;SDS011;10981;45.462;10.974;2023-04-15T03:15:23;4.60;;;3.42;;
21639;SDS011;10981;45.462;10.974;2023-04-15T03:17:55;6.88;;;4.18;;
21639;SDS011;10981;45.462;10.974;2023-04-15T03:20:24;7.30;;;3.50;;
21639;SDS011;10981;45.462;10.974;2023-04-15T03:22:55;4.10;;;2.95;;
21639;SDS011;10981;45.462;10.974;2023-04-15T03:25:25;4.47;;;2.88;;
21639;SDS011;10981;45.462;10.974;2023-04-15T03:27:55;5.78;;;2.80;;
21639;SDS011;10981;45.462;10.974;2023-04-15T03:30:25;4.70;;;2.35;;
21639;SDS011;10981;45.462;10.974;2023-04-15T03:32:55;2.47;;;2.13;;
21639;SDS011;10981;45.462;10.974;2023-04-15T03:35:26;4.05;;;2.30;;
21639;SDS011;10981;45.462;10.974;2023-04-15T03:37:55;4.78;;;3.40;;
21639;SDS011;10981;45.462;10.974;2023-04-15T03:40:25;3.70;;;2.78;;
21639;SDS011;10981;45.462;10.974;2023-04-15T03:42:54;3.95;;;2.97;;
21639;SDS011;10981;45.462;10.974;2023-04-15T03:45:24;5.80;;;3.05;;
21639;SDS011;10981;45.462;10.974;2023-04-15T03:47:53;4.30;;;3.35;;
21639;SDS011;10981;45.462;10.974;2023-04-15T03:50:24;4.30;;;2.45;;
21639;SDS011;10981;45.462;10.974;2023-04-15T03:52:55;4.80;;;2.00;;
21639;SDS011;10981;45.462;10.974;2023-04-15T03:55:24;2.63;;;2.00;;
21639;SDS011;10981;45.462;10.974;2023-04-15T03:57:54;2.92;;;2.40;;
21639;SDS011;10981;45.462;10.974;2023-04-15T04:00:23;2.85;;;2.08;;
21639;SDS011;10981;45.462;10.974;2023-04-15T04:02:53;4.15;;;2.35;;
21639;SDS011;10981;45.462;10.974;2023-04-15T04:05:23;2.13;;;1.90;;
21639;SDS011;10981;45.462;10.974;2023-04-15T04:07:53;3.38;;;1.83;;
21639;SDS011;10981;45.462;10.974;2023-04-15T04:10:22;2.33;;;1.83;;
21639;SDS011;10981;45.462;10.974;2023-04-15T04:12:52;4.15;;;2.63;;
21639;SDS011;10981;45.462;10.974;2023-04-15T04:15:21;2.20;;;2.00;;
21639;SDS011;10981;45.462;10.974;2023-04-15T04:17:51;6.30;;;2.40;;
21639;SDS011;10981;45.462;10.974;2023-04-15T04:20:21;3.60;;;2.05;;
21639;SDS011;10981;45.462;10.974;2023-04-15T04:22:50;3.17;;;2.50;;
21639;SDS011;10981;45.462;10.974;2023-04-15T04:25:20;6.03;;;2.78;;
21639;SDS011;10981;45.462;10.974;2023-04-15T04:27:49;4.80;;;2.70;;
21639;SDS011;10981;45.462;10.974;2023-04-15T04:30:19;4.00;;;2.80;;
21639;SDS011;10981;45.462;10.974;2023-04-15T04:32:49;4.53;;;2.95;;
21639;SDS011;10981;45.462;10.974;2023-04-15T04:35:19;4.38;;;2.90;;
21639;SDS011;10981;45.462;10.974;2023-04-15T04:37:49;3.58;;;2.50;;
21639;SDS011;10981;45.462;10.974;2023-04-15T04:40:19;4.10;;;3.30;;
21639;SDS011;10981;45.462;10.974;2023-04-15T04:42:49;3.50;;;2.83;;
21639;SDS011;10981;45.462;10.974;2023-04-15T04:45:18;5.22;;;3.53;;
21639;SDS011;10981;45.462;10.974;2023-04-15T04:47:48;6.07;;;3.25;;
21639;SDS011;10981;45.462;10.974;2023-04-15T04:50:18;7.47;;;4.22;;
21639;SDS011;10981;45.462;10.974;2023-04-15T04:52:47;8.20;;;4.15;;
21639;SDS011;10981;45.462;10.974;2023-04-15T04:55:17;6.43;;;4.18;;
21639;SDS011;10981;45.462;10.974;2023-04-15T04:57:46;9.18;;;4.95;;
21639;SDS011;10981;45.462;10.974;2023-04-15T05:00:16;6.57;;;4.13;;
21639;SDS011;10981;45.462;10.974;2023-04-15T05:02:46;8.40;;;4.15;;
21639;SDS011;10981;45.462;10.974;2023-04-15T05:05:16;5.32;;;4.10;;
21639;SDS011;10981;45.462;10.974;2023-04-15T05:07:46;5.22;;;3.97;;
21639;SDS011;10981;45.462;10.974;2023-04-15T05:10:17;4.65;;;3.92;;
21639;SDS011;10981;45.462;10.974;2023-04-15T05:12:47;7.75;;;4.00;;
21639;SDS011;10981;45.462;10.974;2023-04-15T05:15:16;7.15;;;3.90;;
21639;SDS011;10981;45.462;10.974;2023-04-15T05:17:46;5.25;;;3.60;;
21639;SDS011;10981;45.462;10.974;2023-04-15T05:20:16;6.20;;;3.63;;
21639;SDS011;10981;45.462;10.974;2023-04-15T05:22:45;6.25;;;3.50;;
21639;SDS011;10981;45.462;10.974;2023-04-15T05:25:15;6.82;;;3.45;;
21639;SDS011;10981;45.462;10.974;2023-04-15T05:27:45;5.95;;;3.70;;
21639;SDS011;10981;45.462;10.974;2023-04-15T05:30:14;5.93;;;3.65;;
21639;SDS011;10981;45.462;10.974;2023-04-15T05:32:44;7.78;;;4.30;;
21639;SDS011;10981;45.462;10.974;2023-04-15T05:35:14;9.60;;;3.72;;
21639;SDS011;10981;45.462;10.974;2023-04-15T05:37:44;7.70;;;4.43;;
21639;SDS011;10981;45.462;10.974;2023-04-15T05:40:14;5.07;;;3.50;;
21639;SDS011;10981;45.462;10.974;2023-04-15T05:42:43;7.82;;;3.65;;
21639;SDS011;10981;45.462;10.974;2023-04-15T05:45:13;8.30;;;3.30;;
21639;SDS011;10981;45.462;10.974;2023-04-15T05:47:43;6.43;;;3.20;;
21639;SDS011;10981;45.462;10.974;2023-04-15T05:50:12;7.55;;;5.07;;
21639;SDS011;10981;45.462;10.974;2023-04-15T05:52:42;8.48;;;4.85;;
21639;SDS011;10981;45.462;10.974;2023-04-15T05:55:13;5.85;;;4.47;;
21639;SDS011;10981;45.462;10.974;2023-04-15T05:57:42;7.85;;;4.95;;
21639;SDS011;10981;45.462;10.974;2023-04-15T06:00:12;9.55;;;4.65;;
21639;SDS011;10981;45.462;10.974;2023-04-15T06:02:42;11.65;;;5.45;;
21639;SDS011;10981;45.462;10.974;2023-04-15T06:05:12;7.10;;;4.68;;
21639;SDS011;10981;45.462;10.974;2023-04-15T06:07:42;6.53;;;4.30;;
21639;SDS011;10981;45.462;10.974;2023-04-15T06:10:14;5.90;;;3.83;;
21639;SDS011;10981;45.462;10.974;2023-04-15T06:12:44;4.95;;;3.35;;
21639;SDS011;10981;45.462;10.974;2023-04-15T06:15:13;6.53;;;3.95;;
21639;SDS011;10981;45.462;10.974;2023-04-15T06:17:44;5.80;;;3.50;;
21639;SDS011;10981;45.462;10.974;2023-04-15T06:20:14;5.65;;;4.07;;
21639;SDS011;10981;45.462;10.974;2023-04-15T06:22:43;7.38;;;4.40;;
21639;SDS011;10981;45.462;10.974;2023-04-15T06:25:13;6.78;;;4.28;;
21639;SDS011;10981;45.462;10.974;2023-04-15T06:27:43;5.75;;;3.88;;
21639;SDS011;10981;45.462;10.974;2023-04-15T06:30:12;6.25;;;3.42;;
21639;SDS011;10981;45.462;10.974;2023-04-15T06:32:42;5.63;;;3.65;;
21639;SDS011;10981;45.462;10.974;2023-04-15T06:35:12;5.15;;;3.00;;
21639;SDS011;10981;45.462;10.974;2023-04-15T06:37:41;3.90;;;2.70;;
21639;SDS011;10981;45.462;10.974;2023-04-15T06:40:11;6.30;;;3.08;;
21639;SDS011;10981;45.462;10.974;2023-04-15T06:42:41;5.13;;;2.55;;
21639;SDS011;10981;45.462;10.974;2023-04-15T06:45:11;5.40;;;2.85;;
21639;SDS011;10981;45.462;10.974;2023-04-15T06:47:41;8.20;;;3.25;;
21639;SDS011;10981;45.462;10.974;2023-04-15T06:50:11;4.25;;;2.97;;
21639;SDS011;10981;45.462;10.974;2023-04-15T06:52:40;4.65;;;2.95;;
21639;SDS011;10981;45.462;10.974;2023-04-15T06:55:10;5.65;;;3.13;;
21639;SDS011;10981;45.462;10.974;2023-04-15T06:57:40;4.72;;;3.10;;
21639;SDS011;10981;45.462;10.974;2023-04-15T07:00:09;5.18;;;3.35;;
21639;SDS011;10981;45.462;10.974;2023-04-15T07:02:39;4.78;;;3.63;;
21639;SDS011;10981;45.462;10.974;2023-04-15T07:05:09;7.25;;;4.07;;
21639;SDS011;10981;45.462;10.974;2023-04-15T07:07:40;8.07;;;4.35;;
21639;SDS011;10981;45.462;10.974;2023-04-15T07:10:10;5.88;;;3.40;;
21639;SDS011;10981;45.462;10.974;2023-04-15T07:12:39;7.97;;;3.35;;
21639;SDS011;10981;45.462;10.974;2023-04-15T07:15:09;5.18;;;3.40;;
21639;SDS011;10981;45.462;10.974;2023-04-15T07:17:40;5.43;;;3.72;;
21639;SDS011;10981;45.462;10.974;2023-04-15T07:20:11;4.60;;;3.20;;
21639;SDS011;10981;45.462;10.974;2023-04-15T07:22:41;4.05;;;3.22;;
21639;SDS011;10981;45.462;10.974;2023-04-15T07:25:11;5.63;;;3.67;;
21639;SDS011;10981;45.462;10.974;2023-04-15T07:27:40;4.95;;;3.53;;
21639;SDS011;10981;45.462;10.974;2023-04-15T07:30:10;4.50;;;3.30;;
21639;SDS011;10981;45.462;10.974;2023-04-15T07:32:40;8.32;;;3.47;;
21639;SDS011;10981;45.462;10.974;2023-04-15T07:35:10;7.20;;;3.47;;
21639;SDS011;10981;45.462;10.974;2023-04-15T07:37:40;6.10;;;3.17;;
21639;SDS011;10981;45.462;10.974;2023-04-15T07:40:10;7.03;;;3.08;;
21639;SDS011;10981;45.462;10.974;2023-04-15T07:42:41;6.35;;;3.25;;
21639;SDS011;10981;45.462;10.974;2023-04-15T07:45:11;5.43;;;3.22;;
21639;SDS011;10981;45.462;10.974;2023-04-15T07:47:41;7.65;;;3.00;;
21639;SDS011;10981;45.462;10.974;2023-04-15T07:50:10;3.67;;;3.13;;
21639;SDS011;10981;45.462;10.974;2023-04-15T07:52:40;4.15;;;2.97;;
21639;SDS011;10981;45.462;10.974;2023-04-15T07:55:10;2.72;;;2.45;;
21639;SDS011;10981;45.462;10.974;2023-04-15T07:57:39;5.72;;;3.83;;
21639;SDS011;10981;45.462;10.974;2023-04-15T08:00:09;3.55;;;3.17;;
21639;SDS011;10981;45.462;10.974;2023-04-15T08:02:42;3.85;;;3.00;;
21639;SDS011;10981;45.462;10.974;2023-04-15T08:05:14;5.25;;;3.00;;
21639;SDS011;10981;45.462;10.974;2023-04-15T08:07:44;6.85;;;3.97;;
21639;SDS011;10981;45.462;10.974;2023-04-15T08:10:14;4.80;;;2.83;;
21639;SDS011;10981;45.462;10.974;2023-04-15T08:12:44;6.50;;;3.20;;
21639;SDS011;10981;45.462;10.974;2023-04-15T08:15:16;3.85;;;3.03;;
21639;SDS011;10981;45.462;10.974;2023-04-15T08:17:46;5.80;;;3.85;;
21639;SDS011;10981;45.462;10.974;2023-04-15T08:20:16;7.85;;;4.68;;
21639;SDS011;10981;45.462;10.974;2023-04-15T08:22:47;4.70;;;4.05;;
21639;SDS011;10981;45.462;10.974;2023-04-15T08:25:19;8.00;;;4.53;;
21639;SDS011;10981;45.462;10.974;2023-04-15T08:27:49;4.65;;;3.58;;
21639;SDS011;10981;45.462;10.974;2023-04-15T08:30:18;5.82;;;3.70;;
21639;SDS011;10981;45.462;10.974;2023-04-15T08:32:49;7.53;;;4.43;;
21639;SDS011;10981;45.462;10.974;2023-04-15T08:35:18;7.43;;;4.13;;
21639;SDS011;10981;45.462;10.974;2023-04-15T08:37:48;6.60;;;4.32;;
21639;SDS011;10981;45.462;10.974;2023-04-15T08:40:18;5.38;;;3.97;;
21639;SDS011;10981;45.462;10.974;2023-04-15T08:42:50;6.05;;;4.00;;
21639;SDS011;10981;45.462;10.974;2023-04-15T08:45:25;7.43;;;3.90;;
21639;SDS011;10981;45.462;10.974;2023-04-15T08:47:54;7.05;;;4.70;;
21639;SDS011;10981;45.462;10.974;2023-04-15T08:50:24;5.13;;;3.83;;
21639;SDS011;10981;45.462;10.974;2023-04-15T08:52:57;4.60;;;3.55;;
21639;SDS011;10981;45.462;10.974;2023-04-15T08:55:29;5.72;;;4.32;;
21639;SDS011;10981;45.462;10.974;2023-04-15T08:58:03;5.50;;;4.10;;
21639;SDS011;10981;45.462;10.974;2023-04-15T09:00:34;4.68;;;3.80;;
21639;SDS011;10981;45.462;10.974;2023-04-15T09:03:05;7.05;;;4.10;;
21639;SDS011;10981;45.462;10.974;2023-04-15T09:05:35;6.60;;;4.10;;
21639;SDS011;10981;45.462;10.974;2023-04-15T09:08:05;5.53;;;3.50;;
21639;SDS011;10981;45.462;10.974;2023-04-15T09:10:35;5.72;;;3.78;;
21639;SDS011;10981;45.462;10.974;2023-04-15T09:13:05;4.95;;;3.80;;
21639;SDS011;10981;45.462;10.974;2023-04-15T09:15:36;5.13;;;3.97;;
21639;SDS011;10981;45.462;10.974;2023-04-15T09:18:06;7.63;;;3.60;;
21639;SDS011;10981;45.462;10.974;2023-04-15T09:20:39;5.72;;;3.95;;
21639;SDS011;10981;45.462;10.974;2023-04-15T09:23:13;6.43;;;3.97;;
21639;SDS011;10981;45.462;10.974;2023-04-15T09:25:44;4.47;;;3.42;;
21639;SDS011;10981;45.462;10.974;2023-04-15T09:28:14;5.78;;;3.55;;
21639;SDS011;10981;45.462;10.974;2023-04-15T09:30:57;4.65;;;3.30;;
21639;SDS011;10981;45.462;10.974;2023-04-15T09:33:28;6.25;;;3.65;;
21639;SDS011;10981;45.462;10.974;2023-04-15T09:36:01;5.07;;;3.80;;
21639;SDS011;10981;45.462;10.974;2023-04-15T09:38:32;5.95;;;3.80;;
21639;SDS011;10981;45.462;10.974;2023-04-15T09:41:02;6.93;;;3.80;;
21639;SDS011;10981;45.462;10.974;2023-04-15T09:43:44;7.70;;;3.60;;
21639;SDS011;10981;45.462;10.974;2023-04-15T09:46:14;5.22;;;3.40;;
21639;SDS011;10981;45.462;10.974;2023-04-15T09:48:43;4.88;;;3.08;;
21639;SDS011;10981;45.462;10.974;2023-04-15T09:51:13;4.28;;;3.10;;
21639;SDS011;10981;45.462;10.974;2023-04-15T09:53:43;4.22;;;2.58;;
21639;SDS011;10981;45.462;10.974;2023-04-15T09:56:12;4.25;;;2.63;;
21639;SDS011;10981;45.462;10.974;2023-04-15T09:58:42;3.83;;;3.17;;
21639;SDS011;10981;45.462;10.974;2023-04-15T10:01:13;6.85;;;3.30;;
21639;SDS011;10981;45.462;10.974;2023-04-15T10:03:43;4.68;;;3.10;;
21639;SDS011;10981;45.462;10.974;2023-04-15T10:06:14;3.35;;;2.90;;
21639;SDS011;10981;45.462;10.974;2023-04-15T10:08:44;4.75;;;2.72;;
21639;SDS011;10981;45.462;10.974;2023-04-15T10:11:16;5.13;;;2.90;;
21639;SDS011;10981;45.462;10.974;2023-04-15T10:13:46;5.57;;;3.20;;
21639;SDS011;10981;45.462;10.974;2023-04-15T10:16:19;5.07;;;3.50;;
21639;SDS011;10981;45.462;10.974;2023-04-15T10:18:52;8.68;;;3.45;;
21639;SDS011;10981;45.462;10.974;2023-04-15T10:21:23;5.50;;;3.13;;
21639;SDS011;10981;45.462;10.974;2023-04-15T10:23:53;6.25;;;3.28;;
21639;SDS011;10981;45.462;10.974;2023-04-15T10:26:23;5.03;;;3.08;;
21639;SDS011;10981;45.462;10.974;2023-04-15T10:28:53;6.97;;;3.95;;
21639;SDS011;10981;45.462;10.974;2023-04-15T10:31:26;8.25;;;4.22;;
21639;SDS011;10981;45.462;10.974;2023-04-15T10:33:57;5.88;;;3.95;;
21639;SDS011;10981;45.462;10.974;2023-04-15T10:36:31;5.97;;;3.75;;
21639;SDS011;10981;45.462;10.974;2023-04-15T10:39:02;5.47;;;;;
21639;SDS011;10981;45.462;10.974;2023-04-15T10:44:40;4.40;;;3.93;;
21639;SDS011;10981;45.462;10.974;2023-04-15T10:47:15;4.60;;;3.83;;
21639;SDS011;10981;45.462;10.974;2023-04-15T10:49:47;4.97;;;3.25;;
21639;SDS011;10981;45.462;10.974;2023-04-15T10:52:36;4.97;;;3.83;;
21639;SDS011;10981;45.462;10.974;2023-04-15T10:55:12;5.93;;;3.45;;
21639;SDS011;10981;45.462;10.974;2023-04-15T10:57:43;5.88;;;4.25;;
21639;SDS011;10981;45.462;10.974;2023-04-15T11:00:16;5.82;;;4.32;;
21639;SDS011;10981;45.462;10.974;2023-04-15T11:03:05;7.35;;;3.72;;
21639;SDS011;10981;45.462;10.974;2023-04-15T11:05:49;4.70;;;4.03;;
21639;SDS011;10981;45.462;10.974;2023-04-15T11:08:21;4.55;;;3.55;;
21639;SDS011;10981;45.462;10.974;2023-04-15T11:14:32;8.57;;;4.78;;
21639;SDS011;10981;45.462;10.974;2023-04-15T11:17:03;8.48;;;4.38;;
21639;SDS011;10981;45.462;10.974;2023-04-15T11:19:36;6.35;;;4.95;;
21639;SDS011;10981;45.462;10.974;2023-04-15T11:22:09;4.70;;;4.25;;
21639;SDS011;10981;45.462;10.974;2023-04-15T11:24:46;6.30;;;4.90;;
21639;SDS011;10981;45.462;10.974;2023-04-15T11:27:22;7.13;;;4.80;;
21639;SDS011;10981;45.462;10.974;2023-04-15T11:29:52;11.73;;;5.93;;
21639;SDS011;10981;45.462;10.974;2023-04-15T11:32:21;5.32;;;4.15;;
21639;SDS011;10981;45.462;10.974;2023-04-15T11:34:51;4.80;;;3.83;;
21639;SDS011;10981;45.462;10.974;2023-04-15T11:37:26;6.13;;;4.53;;
21639;SDS011;10981;45.462;10.974;2023-04-15T11:39:57;7.18;;;5.30;;
21639;SDS011;10981;45.462;10.974;2023-04-15T11:42:26;7.13;;;5.50;;
21639;SDS011;10981;45.462;10.974;2023-04-15T11:45:11;6.25;;;4.60;;
21639;SDS011;10981;45.462;10.974;2023-04-15T11:47:41;8.00;;;4.28;;
21639;SDS011;10981;45.462;10.974;2023-04-15T11:50:15;7.35;;;5.30;;
21639;SDS011;10981;45.462;10.974;2023-04-15T11:52:54;6.32;;;5.40;;
21639;SDS011;10981;45.462;10.974;2023-04-15T11:55:44;7.88;;;4.57;;
21639;SDS011;10981;45.462;10.974;2023-04-15T11:58:18;4.28;;;3.60;;
21639;SDS011;10981;45.462;10.974;2023-04-15T12:03:28;5.82;;;3.70;;
21639;SDS011;10981;45.462;10.974;2023-04-15T12:06:18;5.30;;;4.45;;
21639;SDS011;10981;45.462;10.974;2023-04-15T12:13:53;5.25;;;3.42;;
21639;SDS011;10981;45.462;10.974;2023-04-15T12:16:23;3.97;;;3.58;;
21639;SDS011;10981;45.462;10.974;2023-04-15T12:18:55;5.13;;;4.00;;
21639;SDS011;10981;45.462;10.974;2023-04-15T12:21:26;5.38;;;3.70;;
21639;SDS011;10981;45.462;10.974;2023-04-15T12:24:01;3.85;;;2.92;;
21639;SDS011;10981;45.462;10.974;2023-04-15T12:26:35;5.13;;;3.50;;
21639;SDS011;10981;45.462;10.974;2023-04-15T12:29:05;3.35;;;2.85;;
21639;SDS011;10981;45.462;10.974;2023-04-15T12:31:34;4.43;;;3.00;;
21639;SDS011;10981;45.462;10.974;2023-04-15T12:34:06;3.90;;;2.80;;
21639;SDS011;10981;45.462;10.974;2023-04-15T12:36:35;4.53;;;2.65;;
21639;SDS011;10981;45.462;10.974;2023-04-15T12:39:03;3.95;;;2.13;;
21639;SDS011;10981;45.462;10.974;2023-04-15T12:41:32;4.65;;;2.92;;
21639;SDS011;10981;45.462;10.974;2023-04-15T12:44:00;2.65;;;2.22;;
21639;SDS011;10981;45.462;10.974;2023-04-15T12:46:29;3.28;;;2.17;;
21639;SDS011;10981;45.462;10.974;2023-04-15T12:48:57;4.70;;;2.42;;
21639;SDS011;10981;45.462;10.974;2023-04-15T12:51:26;3.60;;;2.20;;
21639;SDS011;10981;45.462;10.974;2023-04-15T12:53:54;3.17;;;2.13;;
21639;SDS011;10981;45.462;10.974;2023-04-15T12:56:22;7.50;;;2.97;;
21639;SDS011;10981;45.462;10.974;2023-04-15T12:58:51;5.28;;;2.28;;
21639;SDS011;10981;45.462;10.974;2023-04-15T13:01:19;6.93;;;2.13;;
21639;SDS011;10981;45.462;10.974;2023-04-15T13:03:47;2.33;;;2.10;;
21639;SDS011;10981;45.462;10.974;2023-04-15T13:06:17;3.40;;;2.70;;
21639;SDS011;10981;45.462;10.974;2023-04-15T13:08:45;4.85;;;2.42;;
21639;SDS011;10981;45.462;10.974;2023-04-15T13:11:24;3.20;;;2.63;;
21639;SDS011;10981;45.462;10.974;2023-04-15T13:13:53;3.00;;;2.33;;
21639;SDS011;10981;45.462;10.974;2023-04-15T13:16:23;4.28;;;2.63;;
21639;SDS011;10981;45.462;10.974;2023-04-15T13:18:51;4.40;;;2.75;;
21639;SDS011;10981;45.462;10.974;2023-04-15T13:21:20;5.82;;;2.65;;
21639;SDS011;10981;45.462;10.974;2023-04-15T13:23:48;3.95;;;2.72;;
21639;SDS011;10981;45.462;10.974;2023-04-15T13:26:19;5.30;;;2.92;;
21639;SDS011;10981;45.462;10.974;2023-04-15T13:28:47;2.78;;;2.22;;
21639;SDS011;10981;45.462;10.974;2023-04-15T13:31:16;3.15;;;2.13;;
21639;SDS011;10981;45.462;10.974;2023-04-15T13:33:44;2.78;;;1.98;;
21639;SDS011;10981;45.462;10.974;2023-04-15T13:36:12;3.25;;;2.13;;
21639;SDS011;10981;45.462;10.974;2023-04-15T13:38:40;2.72;;;2.10;;
21639;SDS011;10981;45.462;10.974;2023-04-15T13:41:09;3.28;;;2.28;;
21639;SDS011;10981;45.462;10.974;2023-04-15T13:43:37;4.10;;;2.47;;
21639;SDS011;10981;45.462;10.974;2023-04-15T13:46:05;4.82;;;2.55;;
21639;SDS011;10981;45.462;10.974;2023-04-15T13:48:34;2.42;;;2.20;;
21639;SDS011;10981;45.462;10.974;2023-04-15T13:51:02;3.10;;;2.40;;
21639;SDS011;10981;45.462;10.974;2023-04-15T13:53:31;3.80;;;2.63;;
21639;SDS011;10981;45.462;10.974;2023-04-15T13:56:06;3.25;;;2.72;;
21639;SDS011;10981;45.462;10.974;2023-04-15T13:58:35;7.18;;;2.88;;
21639;SDS011;10981;45.462;10.974;2023-04-15T14:01:04;3.60;;;2.45;;
21639;SDS011;10981;45.462;10.974;2023-04-15T14:03:33;3.17;;;2.50;;
21639;SDS011;10981;45.462;10.974;2023-04-15T14:06:03;3.53;;;1.73;;
21639;SDS011;10981;45.462;10.974;2023-04-15T14:08:32;4.82;;;1.85;;
21639;SDS011;10981;45.462;10.974;2023-04-15T14:11:02;4.10;;;1.90;;
21639;SDS011;10981;45.462;10.974;2023-04-15T14:13:30;2.97;;;2.13;;
21639;SDS011;10981;45.462;10.974;2023-04-15T14:15:58;4.40;;;2.67;;
21639;SDS011;10981;45.462;10.974;2023-04-15T14:18:29;3.65;;;2.03;;
21639;SDS011;10981;45.462;10.974;2023-04-15T14:20:58;3.38;;;2.10;;
21639;SDS011;10981;45.462;10.974;2023-04-15T14:23:27;5.55;;;2.30;;
21639;SDS011;10981;45.462;10.974;2023-04-15T14:25:55;2.88;;;1.92;;
21639;SDS011;10981;45.462;10.974;2023-04-15T14:28:24;4.20;;;2.17;;
21639;SDS011;10981;45.462;10.974;2023-04-15T14:30:52;3.78;;;2.13;;
21639;SDS011;10981;45.462;10.974;2023-04-15T14:33:21;2.45;;;1.70;;
21639;SDS011;10981;45.462;10.974;2023-04-15T14:35:50;4.78;;;2.10;;
21639;SDS011;10981;45.462;10.974;2023-04-15T14:38:18;2.78;;;1.80;;
21639;SDS011;10981;45.462;10.974;2023-04-15T14:40:48;3.95;;;1.80;;
21639;SDS011;10981;45.462;10.974;2023-04-15T14:43:17;2.92;;;1.52;;
21639;SDS011;10981;45.462;10.974;2023-04-15T14:45:45;2.90;;;1.38;;
21639;SDS011;10981;45.462;10.974;2023-04-15T14:48:14;1.83;;;1.33;;
21639;SDS011;10981;45.462;10.974;2023-04-15T14:50:43;2.80;;;1.48;;
21639;SDS011;10981;45.462;10.974;2023-04-15T14:53:11;4.00;;;1.65;;
21639;SDS011;10981;45.462;10.974;2023-04-15T14:55:39;1.65;;;1.48;;
21639;SDS011;10981;45.462;10.974;2023-04-15T14:58:08;3.33;;;1.67;;
21639;SDS011;10981;45.462;10.974;2023-04-15T15:00:39;2.65;;;1.58;;
21639;SDS011;10981;45.462;10.974;2023-04-15T15:03:10;4.38;;;2.05;;
21639;SDS011;10981;45.462;10.974;2023-04-15T15:05:39;3.78;;;1.80;;
21639;SDS011;10981;45.462;10.974;2023-04-15T15:08:10;3.35;;;1.70;;